Terminal Aerodrome Forecast
Issued by NWS Paducah, KY

Home | Current Version | Previous Version | Text Only | Print | Product List | Glossary Off
Versions: 1 2 3 4 5 6 7 8 9 10 11 12 13 14 15 16 17 18 19 20

000
FTUS43 KPAH 260541
TAFEVV
TAF
KEVV 260541Z 2606/2706 02011KT 4SM -RA BR VCTS OVC050CB
     FM260900 34012G21KT 4SM -SHRA BR BKN015
     FM262000 34009KT P6SM SCT250=

USA.gov is the U.S. government's official web portal to all federal, state and local government web resources and services.